sensor_id;sensor_type;location;lat;lon;timestamp;pressure;altitude;pressure_sealevel;temperature;humidity
45113;BME280;30873;53.908;27.576;2023-07-08T00:03:01;1020.9;;;19.7;100
45113;BME280;30873;53.908;27.576;2023-07-08T00:07:27;1020.8;;;19.7;100
45113;BME280;30873;53.908;27.576;2023-07-08T00:12:04;1020.8;;;19.7;100
45113;BME280;30873;53.908;27.576;2023-07-08T00:18:08;1020.9;;;19.7;100
45113;BME280;30873;53.908;27.576;2023-07-08T00:22:25;1020.8;;;19.6;100
45113;BME280;30873;53.908;27.576;2023-07-08T00:27:03;1020.8;;;19.6;100
45113;BME280;30873;53.908;27.576;2023-07-08T00:32:45;1020.9;;;19.5;100
45113;BME280;30873;53.908;27.576;2023-07-08T00:37:45;1020.9;;;19.4;100
45113;BME280;30873;53.908;27.576;2023-07-08T00:42:06;1020.9;;;19.3;100
45113;BME280;30873;53.908;27.576;2023-07-08T00:47:12;1020.8;;;19.2;100
45113;BME280;30873;53.908;27.576;2023-07-08T00:52:44;1020.8;;;19.1;100
45113;BME280;30873;53.908;27.576;2023-07-08T00:57:47;1020.8;;;19;100
45113;BME280;30873;53.908;27.576;2023-07-08T01:03:03;1020.8;;;18.9;100
45113;BME280;30873;53.908;27.576;2023-07-08T01:07:25;1020.8;;;19;100
45113;BME280;30873;53.908;27.576;2023-07-08T01:13:04;1020.8;;;18.9;100
45113;BME280;30873;53.908;27.576;2023-07-08T01:17:04;1020.8;;;18.9;100
45113;BME280;30873;53.908;27.576;2023-07-08T01:23:03;1020.8;;;18.8;100
45113;BME280;30873;53.908;27.576;2023-07-08T01:27:45;1020.8;;;18.7;100
45113;BME280;30873;53.908;27.576;2023-07-08T01:32:48;1020.8;;;18.6;100
45113;BME280;30873;53.908;27.576;2023-07-08T01:37:37;1020.8;;;18.5;100
45113;BME280;30873;53.908;27.576;2023-07-08T01:42:19;1020.9;;;18.5;100
45113;BME280;30873;53.908;27.576;2023-07-08T01:47:04;1020.9;;;18.4;100
45113;BME280;30873;53.908;27.576;2023-07-08T01:52:29;1020.9;;;18.4;100
45113;BME280;30873;53.908;27.576;2023-07-08T01:57:45;1020.9;;;18.5;100
45113;BME280;30873;53.908;27.576;2023-07-08T02:02:24;1020.9;;;18.5;100
45113;BME280;30873;53.908;27.576;2023-07-08T02:08:01;1020.9;;;18.5;100
45113;BME280;30873;53.908;27.576;2023-07-08T02:13:02;1020.9;;;18.5;100
45113;BME280;30873;53.908;27.576;2023-07-08T02:17:41;1020.9;;;18.5;100
45113;BME280;30873;53.908;27.576;2023-07-08T02:22:25;1021;;;18.5;100
45113;BME280;30873;53.908;27.576;2023-07-08T02:27:22;1021;;;18.5;100
45113;BME280;30873;53.908;27.576;2023-07-08T02:32:47;1021;;;18.5;100
45113;BME280;30873;53.908;27.576;2023-07-08T02:37:45;1021;;;18.5;100
45113;BME280;30873;53.908;27.576;2023-07-08T02:42:30;1021;;;18.5;100
45113;BME280;30873;53.908;27.576;2023-07-08T02:48:04;1021.1;;;18.5;100
45113;BME280;30873;53.908;27.576;2023-07-08T02:53:01;1021.1;;;18.5;100
45113;BME280;30873;53.908;27.576;2023-07-08T02:57:04;1021.1;;;18.5;100
45113;BME280;30873;53.908;27.576;2023-07-08T03:02:03;1021.1;;;18.5;100
45113;BME280;30873;53.908;27.576;2023-07-08T03:07:45;1021.1;;;18.6;100
45113;BME280;30873;53.908;27.576;2023-07-08T03:12:45;1021.1;;;18.7;100
45113;BME280;30873;53.908;27.576;2023-07-08T03:17:28;1021.1;;;18.7;100
45113;BME280;30873;53.908;27.576;2023-07-08T03:23:01;1021.2;;;18.7;100
45113;BME280;30873;53.908;27.576;2023-07-08T03:27:30;1021.2;;;18.9;100
45113;BME280;30873;53.908;27.576;2023-07-08T03:32:04;1021.3;;;18.9;100
45113;BME280;30873;53.908;27.576;2023-07-08T03:37:26;1021.3;;;19;100
45113;BME280;30873;53.908;27.576;2023-07-08T03:43:04;1021.3;;;19.1;100
45113;BME280;30873;53.908;27.576;2023-07-08T03:47:24;1021.3;;;19.2;100
45113;BME280;30873;53.908;27.576;2023-07-08T03:53:02;1021.3;;;19.4;100
45113;BME280;30873;53.908;27.576;2023-07-08T03:57:42;1021.3;;;19.5;100
45113;BME280;30873;53.908;27.576;2023-07-08T04:02:26;1021.3;;;19.5;100
45113;BME280;30873;53.908;27.576;2023-07-08T04:07:12;1021.3;;;19.5;100
45113;BME280;30873;53.908;27.576;2023-07-08T04:12:42;1021.3;;;19.5;100
45113;BME280;30873;53.908;27.576;2023-07-08T04:17:22;1021.3;;;19.8;100
45113;BME280;30873;53.908;27.576;2023-07-08T04:22:46;1021.4;;;20;100
45113;BME280;30873;53.908;27.576;2023-07-08T04:28:04;1021.4;;;20.1;100
45113;BME280;30873;53.908;27.576;2023-07-08T04:32:20;1021.4;;;20.4;100
45113;BME280;30873;53.908;27.576;2023-07-08T04:37:12;1021.4;;;20.5;100
45113;BME280;30873;53.908;27.576;2023-07-08T04:43:02;1021.4;;;20.6;100
45113;BME280;30873;53.908;27.576;2023-07-08T04:47:18;1021.4;;;20.9;100
45113;BME280;30873;53.908;27.576;2023-07-08T04:52:12;1021.3;;;21.2;100
45113;BME280;30873;53.908;27.576;2023-07-08T04:57:04;1021.3;;;21.5;100
45113;BME280;30873;53.908;27.576;2023-07-08T05:03:02;1021.2;;;21.4;100
45113;BME280;30873;53.908;27.576;2023-07-08T05:07:12;1021.2;;;21.4;100
45113;BME280;30873;53.908;27.576;2023-07-08T05:12:12;1021.2;;;21.5;100
45113;BME280;30873;53.908;27.576;2023-07-08T05:17:42;1021.1;;;21.8;100
45113;BME280;30873;53.908;27.576;2023-07-08T05:22:06;1021.2;;;21.9;100
45113;BME280;30873;53.908;27.576;2023-07-08T05:28:04;1021.2;;;22.1;100
45113;BME280;30873;53.908;27.576;2023-07-08T05:32:26;1021.2;;;22.4;100
45113;BME280;30873;53.908;27.576;2023-07-08T05:38:02;1021.2;;;22.7;100
45113;BME280;30873;53.908;27.576;2023-07-08T05:42:30;1021.2;;;22.9;100
45113;BME280;30873;53.908;27.576;2023-07-08T05:48:04;1021.2;;;23;100
45113;BME280;30873;53.908;27.576;2023-07-08T05:52:34;1021.1;;;22.9;100
45113;BME280;30873;53.908;27.576;2023-07-08T05:57:14;1021.1;;;22.9;100
45113;BME280;30873;53.908;27.576;2023-07-08T06:02:06;1021.1;;;23;99.6
45113;BME280;30873;53.908;27.576;2023-07-08T06:07:42;1021;;;22.9;97.9
45113;BME280;30873;53.908;27.576;2023-07-08T06:12:18;1020.9;;;23;95.7
45113;BME280;30873;53.908;27.576;2023-07-08T06:17:30;1020.9;;;23.2;93.5
45113;BME280;30873;53.908;27.576;2023-07-08T06:23:04;1020.9;;;23.3;91.4
45113;BME280;30873;53.908;27.576;2023-07-08T06:27:26;1020.9;;;23.4;90.2
45113;BME280;30873;53.908;27.576;2023-07-08T06:33:04;1020.8;;;23.7;87.6
45113;BME280;30873;53.908;27.576;2023-07-08T06:38:02;1020.7;;;23.6;84.6
45113;BME280;30873;53.908;27.576;2023-07-08T06:42:42;1020.7;;;23.6;81.8
45113;BME280;30873;53.908;27.576;2023-07-08T06:47:18;1020.7;;;23.8;82.6
45113;BME280;30873;53.908;27.576;2023-07-08T06:52:04;1020.7;;;24.2;80.7
45113;BME280;30873;53.908;27.576;2023-07-08T06:58:02;1020.6;;;24;81.8
45113;BME280;30873;53.908;27.576;2023-07-08T07:03:02;1020.6;;;23.8;80.7
45113;BME280;30873;53.908;27.576;2023-07-08T07:07:30;1020.5;;;24;77.6
45113;BME280;30873;53.908;27.576;2023-07-08T07:12:46;1020.5;;;23.8;73.8
45113;BME280;30873;53.908;27.576;2023-07-08T07:17:44;1020.4;;;24;74.7
45113;BME280;30873;53.908;27.576;2023-07-08T07:22:26;1020.5;;;24.3;76.5
45113;BME280;30873;53.908;27.576;2023-07-08T07:27:26;1020.5;;;24.4;74.4
45113;BME280;30873;53.908;27.576;2023-07-08T07:32:46;1020.4;;;24.5;70.4
45113;BME280;30873;53.908;27.576;2023-07-08T07:38:02;1020.4;;;24.4;63.7
45113;BME280;30873;53.908;27.576;2023-07-08T07:42:30;1020.4;;;24.6;62.7
45113;BME280;30873;53.908;27.576;2023-07-08T07:47:24;1020.4;;;24.6;61.9
45113;BME280;30873;53.908;27.576;2023-07-08T07:52:04;1020.3;;;24.5;63.7
45113;BME280;30873;53.908;27.576;2023-07-08T07:57:04;1020.3;;;24.9;64.3
45113;BME280;30873;53.908;27.576;2023-07-08T08:02:26;1020.2;;;25.2;63.3
45113;BME280;30873;53.908;27.576;2023-07-08T08:08:02;1020.2;;;25.3;61.2
45113;BME280;30873;53.908;27.576;2023-07-08T08:12:46;1020.1;;;25.1;58.4
45113;BME280;30873;53.908;27.576;2023-07-08T08:18:02;1020.1;;;25;58.7
45113;BME280;30873;53.908;27.576;2023-07-08T08:22:26;1020.1;;;25;59.4
45113;BME280;30873;53.908;27.576;2023-07-08T08:27:04;1020.1;;;24.8;57.7
45113;BME280;30873;53.908;27.576;2023-07-08T08:32:12;1020.1;;;25;56.8
45113;BME280;30873;53.908;27.576;2023-07-08T08:37:26;1020.1;;;25;57.5
45113;BME280;30873;53.908;27.576;2023-07-08T08:42:30;1020.1;;;25.2;57
45113;BME280;30873;53.908;27.576;2023-07-08T08:47:47;1020.1;;;25.5;53.8
45113;BME280;30873;53.908;27.576;2023-07-08T08:53:01;1020.1;;;25.9;53.3
45113;BME280;30873;53.908;27.576;2023-07-08T08:57:06;1020.1;;;26;53.2
45113;BME280;30873;53.908;27.576;2023-07-08T09:02:41;1020.1;;;25.7;53.3
45113;BME280;30873;53.908;27.576;2023-07-08T09:08:04;1020;;;26;52
45113;BME280;30873;53.908;27.576;2023-07-08T09:12:40;1020;;;26.2;51.8
45113;BME280;30873;53.908;27.576;2023-07-08T09:17:46;1020.1;;;26.2;50.6
45113;BME280;30873;53.908;27.576;2023-07-08T09:22:04;1020.1;;;26.3;49.6
45113;BME280;30873;53.908;27.576;2023-07-08T09:28:02;1019.9;;;26.9;48.2
45113;BME280;30873;53.908;27.576;2023-07-08T09:32:23;1020;;;27;47.3
45113;BME280;30873;53.908;27.576;2023-07-08T09:37:27;1020;;;27;46.1
45113;BME280;30873;53.908;27.576;2023-07-08T09:42:40;1019.9;;;27.3;44.8
45113;BME280;30873;53.908;27.576;2023-07-08T09:47:38;1019.9;;;27.4;44.2
45113;BME280;30873;53.908;27.576;2023-07-08T09:53:00;1019.9;;;28;44.2
45113;BME280;30873;53.908;27.576;2023-07-08T09:57:26;1019.8;;;28.7;42.8
45113;BME280;30873;53.908;27.576;2023-07-08T10:03:02;1019.7;;;29.4;40.5
45113;BME280;30873;53.908;27.576;2023-07-08T10:07:44;1019.6;;;30.9;38.3
45113;BME280;30873;53.908;27.576;2023-07-08T10:13:02;1019.7;;;31;37.1
45113;BME280;30873;53.908;27.576;2023-07-08T10:17:42;1019.7;;;30.4;36.1
45113;BME280;30873;53.908;27.576;2023-07-08T10:22:48;1019.7;;;31.1;35.8
45113;BME280;30873;53.908;27.576;2023-07-08T10:27:47;1019.6;;;31.9;35.4
45113;BME280;30873;53.908;27.576;2023-07-08T10:32:44;1019.6;;;32.5;34.4
45113;BME280;30873;53.908;27.576;2023-07-08T10:37:05;1019.6;;;33.5;32.7
45113;BME280;30873;53.908;27.576;2023-07-08T10:42:06;1019.6;;;34;31.5
45113;BME280;30873;53.908;27.576;2023-07-08T10:48:06;1019.5;;;34.9;30.2
45113;BME280;30873;53.908;27.576;2023-07-08T10:52:31;1019.5;;;35.4;29.5
45113;BME280;30873;53.908;27.576;2023-07-08T10:58:22;1019.5;;;35.2;29.2
45113;BME280;30873;53.908;27.576;2023-07-08T11:03:14;1019.4;;;35.2;29
45113;BME280;30873;53.908;27.576;2023-07-08T11:07:43;1019.4;;;35.2;28.5
45113;BME280;30873;53.908;27.576;2023-07-08T11:12:46;1019.4;;;35.6;28.2
45113;BME280;30873;53.908;27.576;2023-07-08T11:17:29;1019.4;;;35.7;28.1
45113;BME280;30873;53.908;27.576;2023-07-08T11:23:03;1019.3;;;36.7;27.8
45113;BME280;30873;53.908;27.576;2023-07-08T11:27:46;1019.2;;;37.6;26
45113;BME280;30873;53.908;27.576;2023-07-08T11:32:23;1019.2;;;37.7;25.7
45113;BME280;30873;53.908;27.576;2023-07-08T11:38:02;1019.3;;;38.1;25.3
45113;BME280;30873;53.908;27.576;2023-07-08T11:42:21;1019.3;;;38.6;24.6
45113;BME280;30873;53.908;27.576;2023-07-08T11:47:30;1019.3;;;39;24.4
45113;BME280;30873;53.908;27.576;2023-07-08T11:52:26;1019.2;;;40;22.9
45113;BME280;30873;53.908;27.576;2023-07-08T11:57:46;1019.2;;;40.2;22.8
45113;BME280;30873;53.908;27.576;2023-07-08T12:02:48;1019.2;;;39.1;23.3
45113;BME280;30873;53.908;27.576;2023-07-08T12:07:30;1019.1;;;40.2;22.5
45113;BME280;30873;53.908;27.576;2023-07-08T12:12:29;1019.1;;;39.5;22.7
45113;BME280;30873;53.908;27.576;2023-07-08T12:17:46;1019.2;;;39.3;22.7
45113;BME280;30873;53.908;27.576;2023-07-08T12:22:26;1019.2;;;40.2;22.1
45113;BME280;30873;53.908;27.576;2023-07-08T12:27:26;1019.1;;;41;21.6
45113;BME280;30873;53.908;27.576;2023-07-08T12:33:00;1019;;;41;21.2
45113;BME280;30873;53.908;27.576;2023-07-08T12:37:44;1019.1;;;41.2;21.1
45113;BME280;30873;53.908;27.576;2023-07-08T12:43:02;1018.9;;;42.1;20.1
45113;BME280;30873;53.908;27.576;2023-07-08T12:47:26;1019;;;41;20.7
45113;BME280;30873;53.908;27.576;2023-07-08T12:52:20;1018.9;;;40.3;21.4
45113;BME280;30873;53.908;27.576;2023-07-08T12:57:42;1018.9;;;38.8;22.4
45113;BME280;30873;53.908;27.576;2023-07-08T13:02:26;1018.9;;;41.2;20.7
45113;BME280;30873;53.908;27.576;2023-07-08T13:07:31;1018.8;;;43;19.6
45113;BME280;30873;53.908;27.576;2023-07-08T13:12:46;1018.8;;;43;19.2
45113;BME280;30873;53.908;27.576;2023-07-08T13:17:46;1018.8;;;42.4;19.5
45113;BME280;30873;53.908;27.576;2023-07-08T13:22:12;1018.9;;;40.3;20.8
45113;BME280;30873;53.908;27.576;2023-07-08T13:27:54;1018.8;;;41.3;20.1
45113;BME280;30873;53.908;27.576;2023-07-08T13:33:04;1018.8;;;41.1;20
45113;BME280;30873;53.908;27.576;2023-07-08T13:38:02;1018.7;;;42.3;19.5
45113;BME280;30873;53.908;27.576;2023-07-08T13:42:30;1018.7;;;42;19.6
45113;BME280;30873;53.908;27.576;2023-07-08T13:47:20;1018.8;;;41.3;20.3
45113;BME280;30873;53.908;27.576;2023-07-08T13:53:02;1018.8;;;38.3;22
45113;BME280;30873;53.908;27.576;2023-07-08T13:57:08;1018.8;;;35.6;24.3
45113;BME280;30873;53.908;27.576;2023-07-08T14:02:19;1018.7;;;35.9;24.3
45113;BME280;30873;53.908;27.576;2023-07-08T14:07:42;1018.7;;;36.9;24.1
45113;BME280;30873;53.908;27.576;2023-07-08T14:12:46;1018.7;;;39.2;22.4
45113;BME280;30873;53.908;27.576;2023-07-08T14:18:02;1018.6;;;39.6;21.9
45113;BME280;30873;53.908;27.576;2023-07-08T14:22:13;1018.7;;;38.2;22.8
45113;BME280;30873;53.908;27.576;2023-07-08T14:28:02;1018.7;;;38.2;23
45113;BME280;30873;53.908;27.576;2023-07-08T14:32:04;1018.7;;;36.6;24.1
45113;BME280;30873;53.908;27.576;2023-07-08T14:38:02;1018.7;;;34.5;25.9
45113;BME280;30873;53.908;27.576;2023-07-08T14:42:42;1018.6;;;35.9;25.2
45113;BME280;30873;53.908;27.576;2023-07-08T14:47:46;1018.6;;;34.9;25.9
45113;BME280;30873;53.908;27.576;2023-07-08T14:52:47;1018.6;;;34.1;26.7
45113;BME280;30873;53.908;27.576;2023-07-08T14:57:43;1018.5;;;33.8;27.1
45113;BME280;30873;53.908;27.576;2023-07-08T15:02:16;1018.5;;;36.2;25.3
45113;BME280;30873;53.908;27.576;2023-07-08T15:08:02;1018.4;;;40.2;22.2
45113;BME280;30873;53.908;27.576;2023-07-08T15:12:46;1018.3;;;42.5;20.6
45113;BME280;30873;53.908;27.576;2023-07-08T15:17:26;1018.3;;;43.5;19.5
45113;BME280;30873;53.908;27.576;2023-07-08T15:23:02;1018.2;;;42.8;19.7
45113;BME280;30873;53.908;27.576;2023-07-08T15:27:45;1018.2;;;42.4;19.8
45113;BME280;30873;53.908;27.576;2023-07-08T15:32:42;1018.2;;;41.7;20
45113;BME280;30873;53.908;27.576;2023-07-08T15:37:24;1018.1;;;41;20.5
45113;BME280;30873;53.908;27.576;2023-07-08T15:42:28;1018.1;;;41.1;20.4
45113;BME280;30873;53.908;27.576;2023-07-08T15:48:02;1018.1;;;40.5;20.7
45113;BME280;30873;53.908;27.576;2023-07-08T15:52:44;1018.1;;;40.1;21
45113;BME280;30873;53.908;27.576;2023-07-08T15:57:28;1018.1;;;38.9;21.8
45113;BME280;30873;53.908;27.576;2023-07-08T16:02:44;1018.1;;;38.8;22.2
45113;BME280;30873;53.908;27.576;2023-07-08T16:08:02;1018.1;;;39.2;21.8
45113;BME280;30873;53.908;27.576;2023-07-08T16:12:13;1018;;;37.9;22.8
45113;BME280;30873;53.908;27.576;2023-07-08T16:17:07;1018.1;;;36.1;24.2
45113;BME280;30873;53.908;27.576;2023-07-08T16:22:46;1018.1;;;34.4;25.7
45113;BME280;30873;53.908;27.576;2023-07-08T16:27:47;1018.1;;;36.2;24.5
45113;BME280;30873;53.908;27.576;2023-07-08T16:32:07;1018;;;37;24
45113;BME280;30873;53.908;27.576;2023-07-08T16:37:04;1018;;;37.7;23.5
45113;BME280;30873;53.908;27.576;2023-07-08T16:42:30;1018;;;36;24.7
45113;BME280;30873;53.908;27.576;2023-07-08T16:47:26;1018;;;34.2;26.5
45113;BME280;30873;53.908;27.576;2023-07-08T16:52:08;1018;;;34.4;26.5
45113;BME280;30873;53.908;27.576;2023-07-08T16:58:02;1018;;;34.6;26.3
45113;BME280;30873;53.908;27.576;2023-07-08T17:02:20;1018.1;;;35.3;25.9
45113;BME280;30873;53.908;27.576;2023-07-08T17:08:02;1018;;;35.3;25.9
45113;BME280;30873;53.908;27.576;2023-07-08T17:12:28;1018.1;;;33.5;27.5
45113;BME280;30873;53.908;27.576;2023-07-08T17:17:46;1018;;;33.6;27.4
45113;BME280;30873;53.908;27.576;2023-07-08T17:23:03;1018;;;34.3;26.9
45113;BME280;30873;53.908;27.576;2023-07-08T17:27:26;1018;;;34.9;26.4
45113;BME280;30873;53.908;27.576;2023-07-08T17:32:22;1018.1;;;35.2;26.3
45113;BME280;30873;53.908;27.576;2023-07-08T17:37:14;1018.1;;;35;26.6
45113;BME280;30873;53.908;27.576;2023-07-08T17:42:46;1018.1;;;33.3;28.5
45113;BME280;30873;53.908;27.576;2023-07-08T17:47:12;1018.1;;;31.7;30.4
45113;BME280;30873;53.908;27.576;2023-07-08T17:52:18;1018.1;;;31.1;31.3
45113;BME280;30873;53.908;27.576;2023-07-08T17:58:02;1018.1;;;30.6;32.4
45113;BME280;30873;53.908;27.576;2023-07-08T18:03:00;1018.1;;;29.8;33.7
45113;BME280;30873;53.908;27.576;2023-07-08T18:07:30;1018.2;;;29.6;34.3
45113;BME280;30873;53.908;27.576;2023-07-08T18:12:26;1018.2;;;29.9;34.5
45113;BME280;30873;53.908;27.576;2023-07-08T18:18:02;1018.2;;;29.8;34.9
45113;BME280;30873;53.908;27.576;2023-07-08T18:22:49;1018.2;;;29.1;36
45113;BME280;30873;53.908;27.576;2023-07-08T18:27:12;1018.3;;;28.2;37.7
45113;BME280;30873;53.908;27.576;2023-07-08T18:33:00;1018.3;;;27.5;39.3
45113;BME280;30873;53.908;27.576;2023-07-08T18:37:32;1018.3;;;27.1;40.8
45113;BME280;30873;53.908;27.576;2023-07-08T18:42:50;1018.4;;;26.7;42.2
45113;BME280;30873;53.908;27.576;2023-07-08T18:47:26;1018.4;;;26.6;43.6
45113;BME280;30873;53.908;27.576;2023-07-08T18:53:02;1018.4;;;26.4;45.1
45113;BME280;30873;53.908;27.576;2023-07-08T18:57:30;1018.4;;;26.2;46.8
45113;BME280;30873;53.908;27.576;2023-07-08T19:03:02;1018.4;;;26.1;48.2
45113;BME280;30873;53.908;27.576;2023-07-08T19:07:42;1018.4;;;26;49.5
45113;BME280;30873;53.908;27.576;2023-07-08T19:12:47;1018.4;;;25.9;50.7
45113;BME280;30873;53.908;27.576;2023-07-08T19:17:44;1018.5;;;25.7;52.4
45113;BME280;30873;53.908;27.576;2023-07-08T19:22:42;1018.4;;;25.5;53.8
45113;BME280;30873;53.908;27.576;2023-07-08T19:27:26;1018.4;;;25.4;56.2
45113;BME280;30873;53.908;27.576;2023-07-08T19:32:05;1018.4;;;25.2;59.9
45113;BME280;30873;53.908;27.576;2023-07-08T19:38:04;1018.4;;;25.1;63
45113;BME280;30873;53.908;27.576;2023-07-08T19:42:25;1018.4;;;25;64
45113;BME280;30873;53.908;27.576;2023-07-08T19:48:00;1018.4;;;24.9;65.4
45113;BME280;30873;53.908;27.576;2023-07-08T19:53:02;1018.4;;;24.8;66.1
45113;BME280;30873;53.908;27.576;2023-07-08T19:57:43;1018.4;;;24.7;67.4
45113;BME280;30873;53.908;27.576;2023-07-08T20:02:12;1018.3;;;24.6;69.7
45113;BME280;30873;53.908;27.576;2023-07-08T20:07:07;1018.3;;;24.4;72.3
45113;BME280;30873;53.908;27.576;2023-07-08T20:13:02;1018.3;;;24.4;74.2
45113;BME280;30873;53.908;27.576;2023-07-08T20:17:46;1018.3;;;24.2;76.1
45113;BME280;30873;53.908;27.576;2023-07-08T20:22:46;1018.4;;;24.1;77.7
45113;BME280;30873;53.908;27.576;2023-07-08T20:28:07;1018.4;;;24;82.1
45113;BME280;30873;53.908;27.576;2023-07-08T20:33:02;1018.3;;;23.8;86.8
45113;BME280;30873;53.908;27.576;2023-07-08T20:37:26;1018.4;;;23.6;89.6
45113;BME280;30873;53.908;27.576;2023-07-08T20:42:32;1018.4;;;23.5;94.5
45113;BME280;30873;53.908;27.576;2023-07-08T20:47:46;1018.4;;;23.3;97.9
45113;BME280;30873;53.908;27.576;2023-07-08T20:52:46;1018.3;;;23.2;98.5
45113;BME280;30873;53.908;27.576;2023-07-08T20:57:07;1018.3;;;23.1;99
45113;BME280;30873;53.908;27.576;2023-07-08T21:02:10;1018.3;;;23.1;99
45113;BME280;30873;53.908;27.576;2023-07-08T21:07:04;1018.3;;;23.1;99.3
45113;BME280;30873;53.908;27.576;2023-07-08T21:12:05;1018.2;;;23;100
45113;BME280;30873;53.908;27.576;2023-07-08T21:17:04;1018.2;;;23;100
45113;BME280;30873;53.908;27.576;2023-07-08T21:23:05;1018.3;;;22.9;100
45113;BME280;30873;53.908;27.576;2023-07-08T21:27:46;1018.3;;;22.8;100
45113;BME280;30873;53.908;27.576;2023-07-08T21:33:04;1018.3;;;22.7;100
45113;BME280;30873;53.908;27.576;2023-07-08T21:37:26;1018.3;;;22.6;100
45113;BME280;30873;53.908;27.576;2023-07-08T21:42:07;1018.3;;;22.6;100
45113;BME280;30873;53.908;27.576;2023-07-08T21:47:42;1018.3;;;22.6;100
45113;BME280;30873;53.908;27.576;2023-07-08T21:52:16;1018.3;;;22.6;100
45113;BME280;30873;53.908;27.576;2023-07-08T21:57:30;1018.4;;;22.6;100
45113;BME280;30873;53.908;27.576;2023-07-08T22:02:49;1018.4;;;22.5;100
45113;BME280;30873;53.908;27.576;2023-07-08T22:07:47;1018.4;;;22.5;100
45113;BME280;30873;53.908;27.576;2023-07-08T22:12:12;1018.5;;;22.4;100
45113;BME280;30873;53.908;27.576;2023-07-08T22:17:04;1018.5;;;22.3;100
45113;BME280;30873;53.908;27.576;2023-07-08T22:23:06;1018.5;;;22.2;100
45113;BME280;30873;53.908;27.576;2023-07-08T22:28:00;1018.5;;;22.2;100
45113;BME280;30873;53.908;27.576;2023-07-08T22:32:30;1018.5;;;22.1;100
45113;BME280;30873;53.908;27.576;2023-07-08T22:37:05;1018.5;;;22.1;100
45113;BME280;30873;53.908;27.576;2023-07-08T22:43:04;1018.5;;;22;100
45113;BME280;30873;53.908;27.576;2023-07-08T22:47:30;1018.5;;;22;100
45113;BME280;30873;53.908;27.576;2023-07-08T22:52:28;1018.5;;;21.9;100
45113;BME280;30873;53.908;27.576;2023-07-08T22:57:44;1018.5;;;21.9;100
45113;BME280;30873;53.908;27.576;2023-07-08T23:02:46;1018.6;;;21.8;100
45113;BME280;30873;53.908;27.576;2023-07-08T23:08:02;1018.6;;;21.7;100
45113;BME280;30873;53.908;27.576;2023-07-08T23:12:26;1018.6;;;21.7;100
45113;BME280;30873;53.908;27.576;2023-07-08T23:18:02;1018.5;;;21.6;100
45113;BME280;30873;53.908;27.576;2023-07-08T23:22:07;1018.6;;;21.6;100
45113;BME280;30873;53.908;27.576;2023-07-08T23:28:04;1018.6;;;21.5;100
45113;BME280;30873;53.908;27.576;2023-07-08T23:32:40;1018.6;;;21.5;100
45113;BME280;30873;53.908;27.576;2023-07-08T23:37:48;1018.6;;;21.4;100
45113;BME280;30873;53.908;27.576;2023-07-08T23:42:46;1018.6;;;21.3;100
45113;BME280;30873;53.908;27.576;2023-07-08T23:47:43;1018.5;;;21.3;100
45113;BME280;30873;53.908;27.576;2023-07-08T23:52:47;1018.6;;;21.2;100
45113;BME280;30873;53.908;27.576;2023-07-08T23:57:30;1018.6;;;21.1;100
